Pagina principale
METAR-TAF:

METAR-TAF

Aeroporti :

Novara, Italia

Aeroporto militare Cameri

latitudine: 45-31N, longitudine: 008-40E, altezza: 178 m

Osservazione

Il bollettino è stato emesso 2 ore e 34 minuti fa, alle 17:55 UTC
Vento 10 kt da nord/nord-est
Temperature 27°C
Umidità 28%
Pressione 1004 hPa
Visibilità 10 km o più
nessuna nube inferiore a 1500 m e nessun cumulonembo

METAR: LIMN 251755Z 03010KT CAVOK 27/07 Q1004 RMK FEW FEW200 VIS MIN 9999 BLU

Ora: 22:29 (20:29 UTC)

Previsione

Il bollettino è stato emesso 3 ore e 29 minuti fa, alle 17:00 UTC
Previsione valida dal 25 alle 18 UTC al 26 alle 03 UTC
Vento 10 kt da nord/nord-ovest
Poco nuvoloso ad un'altezza di 3000 ft
Probabilità 40% :
Temporaneamente
dal 25 alle 19 UTC al 26 alle 02 UTC
Vento 10 kt da nord/nord-ovest con raffiche fino a 20 kt

TAF: LIMN 251700Z 2518/2603 34010KT FEW030 PROB40 TEMPO 2519/2602 34010G20KT

Osservazioni e previsioni meteorologiche di più di 4000 aeroporti (messaggi METAR e TAF).

Le stazioni disponibili sono rappresentate dai dischi gialli e rossi sulla carta.

Puntare il mouse per vedere il nome della stazione.

Clicca sopra per visualizzare le osservazioni e previsioni meteorologiche.

Per cambiare la mappa : fare clic sui pulsanti verdi con una croce nera per ingrandire, il pulsante verde con un trattino per diminuire, o sulla freccia verde per le mappe adiacenti.


METAR-TAF: